sensor_id;sensor_type;location;lat;lon;timestamp;pressure;altitude;pressure_sealevel;temperature;humidity
48644;BME280;34928;37.302;-121.984;2023-07-13T00:08:33;100825.0;;;33.59;25.21
48644;BME280;34928;37.302;-121.984;2023-07-13T00:18:38;100829.0;;;33.42;25.03
48644;BME280;34928;37.302;-121.984;2023-07-13T00:28:43;100826.0;;;33.34;24.91
48644;BME280;34928;37.302;-121.984;2023-07-13T00:38:48;100831.0;;;33.58;24.61
48644;BME280;34928;37.302;-121.984;2023-07-13T00:48:54;100837.0;;;33.44;24.48
48644;BME280;34928;37.302;-121.984;2023-07-13T00:59:04;100833.0;;;33.62;24.36
48644;BME280;34928;37.302;-121.984;2023-07-13T01:09:13;100835.0;;;33.68;24.28
48644;BME280;34928;37.302;-121.984;2023-07-13T01:19:31;100835.0;;;33.60;24.35
48644;BME280;34928;37.302;-121.984;2023-07-13T01:29:40;100834.0;;;33.79;24.14
48644;BME280;34928;37.302;-121.984;2023-07-13T01:39:49;100836.0;;;33.76;24.20
48644;BME280;34928;37.302;-121.984;2023-07-13T01:49:53;100846.0;;;33.60;24.09
48644;BME280;34928;37.302;-121.984;2023-07-13T01:59:59;100848.0;;;33.44;24.29
48644;BME280;34928;37.302;-121.984;2023-07-13T02:10:09;100848.0;;;32.47;24.37
48644;BME280;34928;37.302;-121.984;2023-07-13T02:20:13;100860.0;;;32.12;24.86
48644;BME280;34928;37.302;-121.984;2023-07-13T02:30:18;100862.0;;;31.87;24.88
48644;BME280;34928;37.302;-121.984;2023-07-13T02:40:22;100870.0;;;29.87;27.67
48644;BME280;34928;37.302;-121.984;2023-07-13T02:50:28;100881.0;;;29.44;28.54
48644;BME280;34928;37.302;-121.984;2023-07-13T03:00:33;100886.0;;;29.41;28.74
48644;BME280;34928;37.302;-121.984;2023-07-13T03:10:38;100888.0;;;29.63;28.31
48644;BME280;34928;37.302;-121.984;2023-07-13T03:20:42;100892.0;;;29.54;28.23
48644;BME280;34928;37.302;-121.984;2023-07-13T03:30:48;100896.0;;;29.00;29.19
48644;BME280;34928;37.302;-121.984;2023-07-13T03:40:53;100902.0;;;28.17;30.21
48644;BME280;34928;37.302;-121.984;2023-07-13T03:50:58;100907.0;;;28.29;30.53
48644;BME280;34928;37.302;-121.984;2023-07-13T04:01:04;100914.0;;;28.13;30.25
48644;BME280;34928;37.302;-121.984;2023-07-13T04:11:08;100919.0;;;28.04;30.63
48644;BME280;34928;37.302;-121.984;2023-07-13T04:21:13;100931.0;;;27.77;31.08
48644;BME280;34928;37.302;-121.984;2023-07-13T04:31:18;100937.0;;;27.04;32.12
48644;BME280;34928;37.302;-121.984;2023-07-13T04:41:23;100947.0;;;26.70;32.46
48644;BME280;34928;37.302;-121.984;2023-07-13T04:51:28;100955.0;;;26.63;32.66
48644;BME280;34928;37.302;-121.984;2023-07-13T05:01:33;100966.0;;;26.02;34.01
48644;BME280;34928;37.302;-121.984;2023-07-13T05:11:37;100970.0;;;25.70;34.55
48644;BME280;34928;37.302;-121.984;2023-07-13T05:21:43;100981.0;;;25.57;35.05
48644;BME280;34928;37.302;-121.984;2023-07-13T05:31:49;100985.0;;;25.37;34.92
48644;BME280;34928;37.302;-121.984;2023-07-13T05:41:53;100982.0;;;27.25;32.81
48644;BME280;34928;37.302;-121.984;2023-07-13T05:51:58;100980.0;;;27.72;31.13
48644;BME280;34928;37.302;-121.984;2023-07-13T06:02:03;100977.0;;;27.92;30.42
48644;BME280;34928;37.302;-121.984;2023-07-13T06:12:08;100970.0;;;28.09;30.22
48644;BME280;34928;37.302;-121.984;2023-07-13T06:22:12;100972.0;;;28.41;29.78
48644;BME280;34928;37.302;-121.984;2023-07-13T06:32:18;100972.0;;;28.38;30.03
48644;BME280;34928;37.302;-121.984;2023-07-13T06:42:22;100976.0;;;29.10;29.28
48644;BME280;34928;37.302;-121.984;2023-07-13T06:52:28;100975.0;;;29.36;28.67
48644;BME280;34928;37.302;-121.984;2023-07-13T07:02:32;100969.0;;;29.73;28.17
48644;BME280;34928;37.302;-121.984;2023-07-13T07:12:38;100968.0;;;29.68;27.93
48644;BME280;34928;37.302;-121.984;2023-07-13T07:22:43;100962.0;;;29.86;27.71
48644;BME280;34928;37.302;-121.984;2023-07-13T07:32:47;100964.0;;;29.76;27.55
48644;BME280;34928;37.302;-121.984;2023-07-13T07:42:53;100966.0;;;29.82;27.44
48644;BME280;34928;37.302;-121.984;2023-07-13T07:52:58;100962.0;;;29.81;27.36
48644;BME280;34928;37.302;-121.984;2023-07-13T08:03:03;100962.0;;;30.04;27.34
48644;BME280;34928;37.302;-121.984;2023-07-13T08:13:07;100959.0;;;29.69;27.48
48644;BME280;34928;37.302;-121.984;2023-07-13T08:23:13;100954.0;;;30.01;27.32
48644;BME280;34928;37.302;-121.984;2023-07-13T08:33:19;100958.0;;;29.74;27.32
48644;BME280;34928;37.302;-121.984;2023-07-13T08:43:28;100954.0;;;29.93;27.34
48644;BME280;34928;37.302;-121.984;2023-07-13T08:53:36;100952.0;;;29.86;27.33
48644;BME280;34928;37.302;-121.984;2023-07-13T09:03:50;100951.0;;;29.84;27.30
48644;BME280;34928;37.302;-121.984;2023-07-13T09:14:03;100946.0;;;29.78;27.34
48644;BME280;34928;37.302;-121.984;2023-07-13T09:34:34;100947.0;;;29.67;27.36
48644;BME280;34928;37.302;-121.984;2023-07-13T09:44:38;100948.0;;;29.43;27.36
48644;BME280;34928;37.302;-121.984;2023-07-13T09:54:49;100945.0;;;29.62;27.30
48644;BME280;34928;37.302;-121.984;2023-07-13T10:04:58;100942.0;;;29.72;27.12
48644;BME280;34928;37.302;-121.984;2023-07-13T10:15:03;100942.0;;;29.50;27.25
48644;BME280;34928;37.302;-121.984;2023-07-13T10:25:19;100938.0;;;29.30;27.42
48644;BME280;34928;37.302;-121.984;2023-07-13T10:35:23;100932.0;;;29.21;27.39
48644;BME280;34928;37.302;-121.984;2023-07-13T10:45:32;100923.0;;;28.77;27.47
48644;BME280;34928;37.302;-121.984;2023-07-13T10:55:40;100927.0;;;29.00;27.40
48644;BME280;34928;37.302;-121.984;2023-07-13T11:05:50;100925.0;;;28.89;27.42
48644;BME280;34928;37.302;-121.984;2023-07-13T11:15:58;100927.0;;;29.11;27.49
48644;BME280;34928;37.302;-121.984;2023-07-13T11:26:03;100931.0;;;29.00;27.51
48644;BME280;34928;37.302;-121.984;2023-07-13T11:36:14;100934.0;;;28.95;27.41
48644;BME280;34928;37.302;-121.984;2023-07-13T11:46:23;100937.0;;;28.51;27.52
48644;BME280;34928;37.302;-121.984;2023-07-13T11:56:28;100946.0;;;28.82;27.36
48644;BME280;34928;37.302;-121.984;2023-07-13T12:06:33;100950.0;;;28.68;27.44
48644;BME280;34928;37.302;-121.984;2023-07-13T12:16:38;100961.0;;;28.61;27.43
48644;BME280;34928;37.302;-121.984;2023-07-13T12:26:43;100961.0;;;28.55;27.45
48644;BME280;34928;37.302;-121.984;2023-07-13T12:36:49;100965.0;;;28.44;27.47
48644;BME280;34928;37.302;-121.984;2023-07-13T12:47:03;100966.0;;;28.37;27.48
48644;BME280;34928;37.302;-121.984;2023-07-13T12:57:16;100960.0;;;28.26;27.49
48644;BME280;34928;37.302;-121.984;2023-07-13T13:07:23;100962.0;;;28.46;27.43
48644;BME280;34928;37.302;-121.984;2023-07-13T13:17:30;100972.0;;;28.26;27.30
48644;BME280;34928;37.302;-121.984;2023-07-13T13:27:33;100980.0;;;28.06;27.46
48644;BME280;34928;37.302;-121.984;2023-07-13T13:37:38;100979.0;;;28.12;27.34
48644;BME280;34928;37.302;-121.984;2023-07-13T13:47:43;100989.0;;;28.03;27.40
48644;BME280;34928;37.302;-121.984;2023-07-13T13:57:48;100992.0;;;28.05;27.34
48644;BME280;34928;37.302;-121.984;2023-07-13T14:07:53;100994.0;;;28.45;27.36
48644;BME280;34928;37.302;-121.984;2023-07-13T14:17:58;100990.0;;;28.01;27.36
48644;BME280;34928;37.302;-121.984;2023-07-13T14:28:19;100994.0;;;28.30;27.08
48644;BME280;34928;37.302;-121.984;2023-07-13T14:38:22;100993.0;;;27.69;28.65
48644;BME280;34928;37.302;-121.984;2023-07-13T14:48:28;100990.0;;;27.11;31.64
48644;BME280;34928;37.302;-121.984;2023-07-13T14:58:32;100994.0;;;26.03;33.26
48644;BME280;34928;37.302;-121.984;2023-07-13T15:08:38;101004.0;;;25.32;34.91
48644;BME280;34928;37.302;-121.984;2023-07-13T15:18:44;100999.0;;;25.28;35.29
48644;BME280;34928;37.302;-121.984;2023-07-13T15:28:52;101000.0;;;25.23;35.54
48644;BME280;34928;37.302;-121.984;2023-07-13T15:38:57;100997.0;;;25.64;35.26
48644;BME280;34928;37.302;-121.984;2023-07-13T15:49:09;100994.0;;;25.05;36.51
48644;BME280;34928;37.302;-121.984;2023-07-13T15:59:13;100998.0;;;25.32;35.88
48644;BME280;34928;37.302;-121.984;2023-07-13T16:09:21;100993.0;;;26.69;33.50
48644;BME280;34928;37.302;-121.984;2023-07-13T16:19:27;100995.0;;;26.74;33.32
48644;BME280;34928;37.302;-121.984;2023-07-13T16:29:33;100991.0;;;27.35;32.02
48644;BME280;34928;37.302;-121.984;2023-07-13T16:39:45;100990.0;;;26.98;32.46
48644;BME280;34928;37.302;-121.984;2023-07-13T16:49:53;100983.0;;;27.24;32.48
48644;BME280;34928;37.302;-121.984;2023-07-13T17:00:00;100978.0;;;27.55;32.34
48644;BME280;34928;37.302;-121.984;2023-07-13T17:10:18;100966.0;;;27.53;31.73
48644;BME280;34928;37.302;-121.984;2023-07-13T17:20:25;100966.0;;;28.67;31.17
48644;BME280;34928;37.302;-121.984;2023-07-13T17:30:32;100962.0;;;29.67;29.36
48644;BME280;34928;37.302;-121.984;2023-07-13T17:40:37;100953.0;;;30.22;28.68
48644;BME280;34928;37.302;-121.984;2023-07-13T17:50:42;100950.0;;;30.22;28.45
48644;BME280;34928;37.302;-121.984;2023-07-13T18:00:48;100946.0;;;29.88;28.48
48644;BME280;34928;37.302;-121.984;2023-07-13T18:10:54;100956.0;;;30.35;28.42
48644;BME280;34928;37.302;-121.984;2023-07-13T18:20:57;100959.0;;;30.50;28.27
48644;BME280;34928;37.302;-121.984;2023-07-13T18:31:04;100956.0;;;30.58;28.21
48644;BME280;34928;37.302;-121.984;2023-07-13T18:41:10;100947.0;;;30.70;28.14
48644;BME280;34928;37.302;-121.984;2023-07-13T18:51:13;100949.0;;;30.58;28.05
48644;BME280;34928;37.302;-121.984;2023-07-13T19:01:22;100955.0;;;30.79;28.39
48644;BME280;34928;37.302;-121.984;2023-07-13T19:11:27;100949.0;;;31.10;28.80
48644;BME280;34928;37.302;-121.984;2023-07-13T19:21:35;100944.0;;;31.42;28.77
48644;BME280;34928;37.302;-121.984;2023-07-13T19:31:43;100941.0;;;31.41;28.71
48644;BME280;34928;37.302;-121.984;2023-07-13T19:41:47;100935.0;;;31.67;27.79
48644;BME280;34928;37.302;-121.984;2023-07-13T19:51:52;100926.0;;;31.17;28.09
48644;BME280;34928;37.302;-121.984;2023-07-13T20:01:58;100924.0;;;31.25;28.03
48644;BME280;34928;37.302;-121.984;2023-07-13T20:12:04;100915.0;;;31.41;27.98
48644;BME280;34928;37.302;-121.984;2023-07-13T20:22:13;100909.0;;;31.49;28.00
48644;BME280;34928;37.302;-121.984;2023-07-13T20:32:17;100895.0;;;31.60;27.97
48644;BME280;34928;37.302;-121.984;2023-07-13T20:42:23;100885.0;;;31.70;28.01
48644;BME280;34928;37.302;-121.984;2023-07-13T20:52:27;100868.0;;;31.91;27.85
48644;BME280;34928;37.302;-121.984;2023-07-13T21:02:33;100862.0;;;31.80;27.84
48644;BME280;34928;37.302;-121.984;2023-07-13T21:12:38;100854.0;;;31.92;27.82
48644;BME280;34928;37.302;-121.984;2023-07-13T21:22:42;100842.0;;;32.09;27.75
48644;BME280;34928;37.302;-121.984;2023-07-13T21:32:49;100835.0;;;32.49;27.65
48644;BME280;34928;37.302;-121.984;2023-07-13T21:42:58;100824.0;;;32.47;27.53
48644;BME280;34928;37.302;-121.984;2023-07-13T21:53:10;100818.0;;;32.33;27.70
48644;BME280;34928;37.302;-121.984;2023-07-13T22:03:22;100811.0;;;32.18;27.62
48644;BME280;34928;37.302;-121.984;2023-07-13T22:13:28;100815.0;;;32.37;27.58
48644;BME280;34928;37.302;-121.984;2023-07-13T22:23:33;100794.0;;;32.46;27.66
48644;BME280;34928;37.302;-121.984;2023-07-13T22:33:38;100786.0;;;32.89;27.36
48644;BME280;34928;37.302;-121.984;2023-07-13T22:43:43;100780.0;;;33.30;27.22
48644;BME280;34928;37.302;-121.984;2023-07-13T22:53:48;100770.0;;;33.15;27.14
48644;BME280;34928;37.302;-121.984;2023-07-13T23:03:54;100765.0;;;32.98;27.09
48644;BME280;34928;37.302;-121.984;2023-07-13T23:13:58;100760.0;;;33.23;27.08
48644;BME280;34928;37.302;-121.984;2023-07-13T23:24:04;100757.0;;;33.31;26.98
48644;BME280;34928;37.302;-121.984;2023-07-13T23:34:13;100758.0;;;32.97;27.01
48644;BME280;34928;37.302;-121.984;2023-07-13T23:44:17;100756.0;;;33.27;26.78
48644;BME280;34928;37.302;-121.984;2023-07-13T23:54:24;100759.0;;;33.49;26.64
